Time;durP1;ratioP1;P1;durP2;ratioP2;P2;SDS_P1;SDS_P2;PMS_P1;PMS_P2;Temp;Humidity;BMP_temperature;BMP_pressure;BME280_temperature;BME280_humidity;BME280_pressure;Samples;Min_cycle;Max_cycle;Signal;HPM_P1;HPM_P2
2021/11/20 00:00:34;;;;;;;39.33;17.90;;;;;;;;;;5113240;28;20618;-73
2021/11/20 00:03:02;;;;;;;33.07;16.60;;;;;;;;;;5115179;27;20288;-73
2021/11/20 00:05:30;;;;;;;30.97;16.63;;;;;;;;;;5120648;27;20285;-73
2021/11/20 00:08:00;;;;;;;31.10;17.43;;;;;;;;;;5115819;27;20225;-72
2021/11/20 00:10:29;;;;;;;32.53;17.27;;;;;;;;;;5112903;28;20205;-73
2021/11/20 00:12:57;;;;;;;29.23;16.67;;;;;;;;;;5113638;27;20289;-72
2021/11/20 00:15:27;;;;;;;29.83;17.27;;;;;;;;;;5113386;28;20256;-73
2021/11/20 00:17:55;;;;;;;35.20;17.73;;;;;;;;;;5114182;27;20222;-73
2021/11/20 00:20:24;;;;;;;30.57;17.30;;;;;;;;;;5119189;27;20637;-72
2021/11/20 00:22:52;;;;;;;28.03;16.47;;;;;;;;;;5112847;28;20561;-73
2021/11/20 00:25:23;;;;;;;33.37;15.93;;;;;;;;;;5112022;27;20232;-73
2021/11/20 00:27:52;;;;;;;30.90;16.40;;;;;;;;;;5113410;28;20192;-73
2021/11/20 00:30:22;;;;;;;30.13;15.90;;;;;;;;;;5112870;27;20201;-73
2021/11/20 00:32:50;;;;;;;30.97;15.60;;;;;;;;;;5112815;28;20285;-73
2021/11/20 00:35:25;;;;;;;30.13;14.83;;;;;;;;;;5112889;27;20226;-73
2021/11/20 00:37:53;;;;;;;32.37;14.90;;;;;;;;;;5104487;28;20309;-73
2021/11/20 00:40:23;;;;;;;26.67;14.47;;;;;;;;;;5112725;28;20284;-73
2021/11/20 00:42:51;;;;;;;23.67;13.43;;;;;;;;;;5123482;27;20635;-73
2021/11/20 00:45:18;;;;;;;22.57;14.13;;;;;;;;;;5132013;27;20624;-73
2021/11/20 00:47:45;;;;;;;24.93;13.77;;;;;;;;;;5113690;27;20292;-73
2021/11/20 00:50:14;;;;;;;28.80;13.80;;;;;;;;;;5112530;28;20292;-72
2021/11/20 00:52:41;;;;;;;26.07;13.63;;;;;;;;;;5111728;28;20195;-72
2021/11/20 00:55:11;;;;;;;28.77;14.07;;;;;;;;;;5112545;28;20212;-73
2021/11/20 00:57:39;;;;;;;23.80;14.13;;;;;;;;;;5120637;27;20227;-73
2021/11/20 01:00:07;;;;;;;28.40;15.57;;;;;;;;;;5130506;27;20289;-73
2021/11/20 01:02:34;;;;;;;30.63;16.10;;;;;;;;;;5111585;28;20260;-72
2021/11/20 01:05:02;;;;;;;30.23;16.23;;;;;;;;;;5115740;27;20282;-73
2021/11/20 01:07:29;;;;;;;28.57;15.60;;;;;;;;;;5113930;27;20289;-73
2021/11/20 01:09:56;;;;;;;35.33;17.50;;;;;;;;;;5110600;28;20229;-73
2021/11/20 01:12:26;;;;;;;34.23;17.60;;;;;;;;;;5112054;28;20287;-72
2021/11/20 01:14:55;;;;;;;31.57;17.33;;;;;;;;;;5111276;28;20309;-73
2021/11/20 01:17:24;;;;;;;41.50;18.80;;;;;;;;;;5111892;28;20602;-73
2021/11/20 01:19:51;;;;;;;38.33;18.73;;;;;;;;;;5111864;28;20299;-73
2021/11/20 01:22:19;;;;;;;33.03;17.97;;;;;;;;;;5111833;28;20233;-73
2021/11/20 01:24:46;;;;;;;38.10;18.50;;;;;;;;;;5111861;28;20331;-73
2021/11/20 01:27:15;;;;;;;35.17;18.40;;;;;;;;;;5110841;28;20299;-72
2021/11/20 01:29:42;;;;;;;37.77;18.90;;;;;;;;;;5111653;28;20288;-73
2021/11/20 01:32:11;;;;;;;42.93;19.80;;;;;;;;;;5111748;28;20646;-73
2021/11/20 01:34:38;;;;;;;39.10;20.07;;;;;;;;;;5111990;28;20201;-72
2021/11/20 01:37:07;;;;;;;38.87;18.63;;;;;;;;;;5111703;28;20305;-73
2021/11/20 01:39:35;;;;;;;41.27;19.63;;;;;;;;;;5111512;28;20201;-73
2021/11/20 01:42:05;;;;;;;39.17;19.53;;;;;;;;;;5111363;28;20231;-72
2021/11/20 01:44:34;;;;;;;44.70;20.10;;;;;;;;;;5111201;28;20230;-74
2021/11/20 01:47:04;;;;;;;43.53;20.80;;;;;;;;;;5111188;28;20283;-72
2021/11/20 01:49:33;;;;;;;41.53;21.30;;;;;;;;;;5112171;28;20197;-73
2021/11/20 01:52:03;;;;;;;38.70;21.13;;;;;;;;;;5111557;28;20291;-73
2021/11/20 01:54:38;;;;;;;49.87;21.40;;;;;;;;;;5111960;28;20291;-74
2021/11/20 01:57:07;;;;;;;45.77;22.50;;;;;;;;;;5112786;28;20316;-73
2021/11/20 01:59:36;;;;;;;48.37;22.77;;;;;;;;;;5110997;28;20281;-73
2021/11/20 02:02:09;;;;;;;51.47;23.47;;;;;;;;;;5117931;28;20290;-73
2021/11/20 02:04:41;;;;;;;50.97;23.93;;;;;;;;;;5111682;28;20242;-73
2021/11/20 02:07:10;;;;;;;53.47;24.23;;;;;;;;;;5125368;28;20224;-72
2021/11/20 02:09:40;;;;;;;53.33;25.13;;;;;;;;;;5110869;28;20245;-73
2021/11/20 02:12:09;;;;;;;54.73;25.37;;;;;;;;;;5115314;28;20283;-72
2021/11/20 02:14:36;;;;;;;53.97;25.27;;;;;;;;;;5111657;28;20304;-73
2021/11/20 02:17:06;;;;;;;53.03;25.63;;;;;;;;;;5111050;28;20213;-73
2021/11/20 02:19:34;;;;;;;57.50;25.03;;;;;;;;;;5111693;28;20674;-73
2021/11/20 02:22:06;;;;;;;53.90;24.03;;;;;;;;;;5114697;28;20227;-72
2021/11/20 02:24:33;;;;;;;54.80;24.37;;;;;;;;;;5115472;28;20610;-73
2021/11/20 02:27:03;;;;;;;48.97;23.17;;;;;;;;;;5115288;28;20197;-73
2021/11/20 02:29:30;;;;;;;54.10;23.60;;;;;;;;;;5114342;28;20235;-73
2021/11/20 02:31:59;;;;;;;49.83;24.57;;;;;;;;;;5114152;27;20207;-72
2021/11/20 02:34:30;;;;;;;50.37;24.33;;;;;;;;;;5115196;28;20633;-73
2021/11/20 02:36:57;;;;;;;50.17;23.67;;;;;;;;;;5114927;27;20685;-73
2021/11/20 02:39:26;;;;;;;50.37;23.50;;;;;;;;;;5115252;28;20197;-73
2021/11/20 02:41:55;;;;;;;50.93;24.10;;;;;;;;;;5114965;28;20290;-73
2021/11/20 02:44:23;;;;;;;55.43;24.50;;;;;;;;;;5115087;28;20224;-73
2021/11/20 02:46:51;;;;;;;55.13;24.70;;;;;;;;;;5114370;28;20198;-73
2021/11/20 02:49:20;;;;;;;55.23;24.97;;;;;;;;;;5114102;28;20290;-73
2021/11/20 02:51:48;;;;;;;50.97;24.27;;;;;;;;;;5114663;28;20313;-73
2021/11/20 02:54:17;;;;;;;57.30;25.40;;;;;;;;;;5119541;27;20231;-73
2021/11/20 02:56:46;;;;;;;54.77;24.53;;;;;;;;;;5103575;27;20204;-73
2021/11/20 02:59:13;;;;;;;59.47;25.13;;;;;;;;;;5122039;27;20202;-73
2021/11/20 03:01:41;;;;;;;53.53;23.80;;;;;;;;;;5114948;28;20621;-73
2021/11/20 03:04:09;;;;;;;50.27;25.77;;;;;;;;;;5098778;28;20204;-73
2021/11/20 03:06:38;;;;;;;54.43;24.60;;;;;;;;;;5114011;28;20293;-73
2021/11/20 03:09:06;;;;;;;60.87;25.63;;;;;;;;;;5119375;27;20726;-73
2021/11/20 03:11:33;;;;;;;54.63;24.07;;;;;;;;;;5115232;27;20319;-72
2021/11/20 03:14:04;;;;;;;55.80;25.63;;;;;;;;;;5114021;28;20652;-72
2021/11/20 03:16:32;;;;;;;57.60;25.33;;;;;;;;;;5114520;28;20218;-72
2021/11/20 03:18:59;;;;;;;60.37;25.67;;;;;;;;;;5114230;28;20319;-73
2021/11/20 03:21:26;;;;;;;59.03;25.67;;;;;;;;;;5124081;27;20303;-73
2021/11/20 03:23:57;;;;;;;60.83;25.70;;;;;;;;;;5135268;27;20203;-72
2021/11/20 03:26:24;;;;;;;60.77;25.93;;;;;;;;;;5129735;27;20231;-73
2021/11/20 03:28:51;;;;;;;56.27;25.80;;;;;;;;;;5113281;28;20239;-73
2021/11/20 03:31:20;;;;;;;59.90;25.53;;;;;;;;;;5113206;28;20752;-73
2021/11/20 03:33:47;;;;;;;61.37;26.60;;;;;;;;;;5113760;28;20197;-73
2021/11/20 03:36:14;;;;;;;53.93;24.47;;;;;;;;;;5114277;28;20232;-72
2021/11/20 03:38:42;;;;;;;56.80;25.40;;;;;;;;;;5113673;28;20219;-73
2021/11/20 03:41:11;;;;;;;59.27;25.00;;;;;;;;;;5114542;28;20248;-73
2021/11/20 03:43:38;;;;;;;58.17;24.27;;;;;;;;;;5113874;27;20619;-73
2021/11/20 03:46:05;;;;;;;51.07;25.50;;;;;;;;;;5113860;28;20331;-72
2021/11/20 03:48:33;;;;;;;53.87;24.20;;;;;;;;;;5095295;28;20279;-73
2021/11/20 03:51:00;;;;;;;51.17;23.10;;;;;;;;;;5113062;28;20254;-73
2021/11/20 03:53:28;;;;;;;47.83;22.63;;;;;;;;;;5114255;27;20207;-72
2021/11/20 03:55:55;;;;;;;44.07;22.20;;;;;;;;;;5113354;27;20295;-73
2021/11/20 03:58:24;;;;;;;46.93;21.93;;;;;;;;;;5113801;28;20306;-73
2021/11/20 04:00:53;;;;;;;47.00;22.43;;;;;;;;;;5113631;28;20195;-72
2021/11/20 04:03:21;;;;;;;48.00;22.83;;;;;;;;;;5113327;28;20294;-73
2021/11/20 04:05:49;;;;;;;42.80;21.63;;;;;;;;;;5113294;28;20661;-73
2021/11/20 04:08:17;;;;;;;42.60;20.93;;;;;;;;;;5112679;28;20284;-73
2021/11/20 04:10:44;;;;;;;41.43;21.47;;;;;;;;;;5113554;28;20562;-73
2021/11/20 04:13:11;;;;;;;38.20;19.73;;;;;;;;;;5113384;28;20628;-73
2021/11/20 04:15:40;;;;;;;43.50;21.33;;;;;;;;;;5113044;28;20251;-73
2021/11/20 04:18:07;;;;;;;48.00;21.70;;;;;;;;;;5112915;28;20338;-73
2021/11/20 04:20:35;;;;;;;42.43;20.13;;;;;;;;;;5113010;28;20265;-73
2021/11/20 04:23:04;;;;;;;39.03;20.70;;;;;;;;;;5102807;27;20206;-73
2021/11/20 04:25:31;;;;;;;35.97;18.97;;;;;;;;;;5112441;28;20683;-72
2021/11/20 04:27:58;;;;;;;34.43;17.83;;;;;;;;;;5113547;28;20230;-73
2021/11/20 04:30:26;;;;;;;37.47;18.60;;;;;;;;;;5112251;28;20190;-72
2021/11/20 04:32:55;;;;;;;34.40;18.03;;;;;;;;;;5112634;28;20317;-73
2021/11/20 04:35:23;;;;;;;37.00;18.37;;;;;;;;;;5113148;28;20253;-73
2021/11/20 04:37:50;;;;;;;35.40;18.93;;;;;;;;;;5115158;27;20668;-72
2021/11/20 04:40:18;;;;;;;34.33;18.03;;;;;;;;;;5119028;27;20281;-73
2021/11/20 04:42:46;;;;;;;34.97;17.27;;;;;;;;;;5113026;27;20291;-73
2021/11/20 04:45:15;;;;;;;33.40;18.03;;;;;;;;;;5112730;28;20317;-72
2021/11/20 04:47:42;;;;;;;35.93;18.00;;;;;;;;;;5112368;28;20228;-73
2021/11/20 04:50:13;;;;;;;36.87;18.63;;;;;;;;;;5112674;28;20294;-73
2021/11/20 04:52:40;;;;;;;37.20;18.37;;;;;;;;;;5111879;28;20232;-74
2021/11/20 04:55:10;;;;;;;35.57;18.33;;;;;;;;;;5112074;28;20196;-73
2021/11/20 04:57:37;;;;;;;34.77;17.63;;;;;;;;;;5112871;28;20290;-72
2021/11/20 05:00:06;;;;;;;35.17;18.60;;;;;;;;;;5112394;28;20281;-73
2021/11/20 05:02:33;;;;;;;32.40;18.47;;;;;;;;;;5111810;28;20235;-73
2021/11/20 05:05:00;;;;;;;34.50;17.23;;;;;;;;;;5112298;27;20241;-72
2021/11/20 05:07:29;;;;;;;41.13;18.87;;;;;;;;;;5111459;28;20292;-73
2021/11/20 05:09:56;;;;;;;35.77;19.97;;;;;;;;;;5111349;28;20207;-73
2021/11/20 05:12:24;;;;;;;37.17;18.37;;;;;;;;;;5104940;27;20201;-73
2021/11/20 05:14:51;;;;;;;33.43;18.47;;;;;;;;;;5111766;28;20230;-72
2021/11/20 05:17:18;;;;;;;36.17;18.80;;;;;;;;;;5112289;28;20235;-73
2021/11/20 05:19:45;;;;;;;34.53;18.60;;;;;;;;;;5111793;28;20318;-73
2021/11/20 05:22:12;;;;;;;35.43;18.90;;;;;;;;;;5112117;28;20282;-72
2021/11/20 05:24:41;;;;;;;35.20;18.23;;;;;;;;;;5111735;28;20231;-73
2021/11/20 05:27:08;;;;;;;35.30;18.27;;;;;;;;;;5123529;27;20194;-72
2021/11/20 05:29:40;;;;;;;31.93;18.07;;;;;;;;;;5106787;28;20843;-73
2021/11/20 05:32:08;;;;;;;37.43;19.07;;;;;;;;;;5112139;28;20206;-73
2021/11/20 05:34:36;;;;;;;33.33;18.53;;;;;;;;;;5111537;28;20616;-73
2021/11/20 05:37:04;;;;;;;32.93;18.80;;;;;;;;;;5112033;28;20248;-73
2021/11/20 05:39:31;;;;;;;39.10;19.53;;;;;;;;;;5112397;28;20315;-73
2021/11/20 05:42:00;;;;;;;32.03;18.73;;;;;;;;;;5112493;28;20312;-73
2021/11/20 05:44:27;;;;;;;35.97;18.90;;;;;;;;;;5111619;28;21121;-73
2021/11/20 05:46:58;;;;;;;32.63;19.33;;;;;;;;;;5111852;28;20283;-72
2021/11/20 05:49:26;;;;;;;33.40;18.47;;;;;;;;;;5111974;28;20201;-72
2021/11/20 05:51:53;;;;;;;33.80;18.50;;;;;;;;;;5118511;28;20291;-74
2021/11/20 05:54:20;;;;;;;32.80;19.93;;;;;;;;;;5113312;28;20295;-73
2021/11/20 05:56:47;;;;;;;31.17;18.07;;;;;;;;;;5097998;28;20239;-73
2021/11/20 05:59:16;;;;;;;33.00;18.73;;;;;;;;;;5116288;28;20230;-73
2021/11/20 06:01:45;;;;;;;34.90;18.97;;;;;;;;;;5117901;27;20291;-73
2021/11/20 06:04:12;;;;;;;30.13;18.77;;;;;;;;;;5122281;27;20726;-72
2021/11/20 06:06:40;;;;;;;32.37;19.17;;;;;;;;;;5114936;28;20574;-72
2021/11/20 06:09:07;;;;;;;35.03;19.13;;;;;;;;;;5116551;27;20451;-73
2021/11/20 06:11:35;;;;;;;32.97;18.80;;;;;;;;;;5122649;27;20193;-72
2021/11/20 06:14:02;;;;;;;32.13;18.53;;;;;;;;;;5115289;27;20303;-73
2021/11/20 06:16:31;;;;;;;32.43;18.90;;;;;;;;;;5115671;28;20229;-73
2021/11/20 06:18:58;;;;;;;31.53;17.77;;;;;;;;;;5114853;27;20315;-73
2021/11/20 06:21:25;;;;;;;29.37;17.43;;;;;;;;;;5115779;28;20231;-73
2021/11/20 06:23:52;;;;;;;30.30;17.90;;;;;;;;;;5115509;28;20191;-73
2021/11/20 06:26:20;;;;;;;27.97;17.77;;;;;;;;;;5115352;27;20365;-72
2021/11/20 06:28:47;;;;;;;32.17;18.13;;;;;;;;;;5115132;28;20597;-72
2021/11/20 06:31:15;;;;;;;30.53;17.90;;;;;;;;;;5115744;28;20677;-73
2021/11/20 06:33:44;;;;;;;30.50;18.27;;;;;;;;;;5115964;28;20228;-72
2021/11/20 06:36:11;;;;;;;32.90;18.27;;;;;;;;;;5114696;27;20209;-72
2021/11/20 06:38:39;;;;;;;29.93;17.83;;;;;;;;;;5115343;28;20315;-73
2021/11/20 06:41:07;;;;;;;30.80;18.20;;;;;;;;;;5115298;28;20237;-73
2021/11/20 06:43:34;;;;;;;34.60;18.40;;;;;;;;;;5115644;28;20286;-73
2021/11/20 06:46:03;;;;;;;29.43;17.73;;;;;;;;;;5121598;27;20292;-72
2021/11/20 06:48:31;;;;;;;28.17;17.67;;;;;;;;;;5115511;28;20195;-72
2021/11/20 06:51:00;;;;;;;31.30;18.13;;;;;;;;;;5114877;27;20210;-73
2021/11/20 06:53:28;;;;;;;28.27;17.93;;;;;;;;;;5107124;28;20193;-73
2021/11/20 06:55:55;;;;;;;28.70;17.70;;;;;;;;;;5114893;27;20295;-72
2021/11/20 06:58:52;;;;;;;27.37;16.60;;;;;;;;;;5113947;27;20212;-73
2021/11/20 07:01:20;;;;;;;30.27;17.77;;;;;;;;;;5114832;28;20562;-73
2021/11/20 07:03:49;;;;;;;27.17;16.73;;;;;;;;;;5113948;28;20889;-72
2021/11/20 07:06:19;;;;;;;26.97;16.97;;;;;;;;;;5113263;28;20683;-73
2021/11/20 07:08:47;;;;;;;25.10;16.30;;;;;;;;;;5122138;27;20614;-73
2021/11/20 07:11:14;;;;;;;33.10;17.60;;;;;;;;;;5114223;28;20302;-72
2021/11/20 07:13:42;;;;;;;27.67;17.17;;;;;;;;;;5114254;27;20299;-72
2021/11/20 07:16:11;;;;;;;28.77;16.80;;;;;;;;;;5116049;27;20584;-73
2021/11/20 07:18:38;;;;;;;26.53;16.27;;;;;;;;;;5114200;28;20227;-73
2021/11/20 07:21:06;;;;;;;30.67;16.93;;;;;;;;;;5113853;28;20209;-72
2021/11/20 07:23:34;;;;;;;25.70;16.57;;;;;;;;;;5114385;27;20288;-73
2021/11/20 07:26:02;;;;;;;26.83;17.00;;;;;;;;;;5127102;27;20234;-73
2021/11/20 07:28:29;;;;;;;27.20;16.67;;;;;;;;;;5120651;27;20303;-74
2021/11/20 07:30:56;;;;;;;28.23;17.27;;;;;;;;;;5114263;28;20235;-72
2021/11/20 07:33:24;;;;;;;28.40;17.43;;;;;;;;;;5114131;28;20722;-73
2021/11/20 07:35:52;;;;;;;26.67;16.53;;;;;;;;;;5114070;28;20205;-73
2021/11/20 07:38:21;;;;;;;27.03;17.07;;;;;;;;;;5122284;27;20697;-72
2021/11/20 07:40:49;;;;;;;28.37;16.17;;;;;;;;;;5118205;27;20298;-72
2021/11/20 07:43:17;;;;;;;30.37;17.20;;;;;;;;;;5114298;27;20201;-73
2021/11/20 07:45:44;;;;;;;30.03;18.27;;;;;;;;;;5114003;28;20292;-73
2021/11/20 07:48:13;;;;;;;28.57;18.27;;;;;;;;;;5113869;28;20306;-73
2021/11/20 07:50:41;;;;;;;31.60;18.70;;;;;;;;;;5113345;28;20759;-73
2021/11/20 07:53:08;;;;;;;28.90;18.53;;;;;;;;;;5113631;28;20288;-73
2021/11/20 07:55:35;;;;;;;31.77;18.77;;;;;;;;;;5113576;28;20202;-73
2021/11/20 07:58:04;;;;;;;33.40;20.13;;;;;;;;;;5112759;28;20299;-73
2021/11/20 08:00:32;;;;;;;31.77;19.67;;;;;;;;;;5113782;28;20282;-73
2021/11/20 08:02:59;;;;;;;32.63;20.40;;;;;;;;;;5112869;28;20241;-72
2021/11/20 08:05:28;;;;;;;33.70;20.30;;;;;;;;;;5113554;28;20212;-74
2021/11/20 08:07:55;;;;;;;32.93;19.33;;;;;;;;;;5113330;28;20211;-74
2021/11/20 08:10:23;;;;;;;32.93;20.83;;;;;;;;;;5113153;28;20438;-75
2021/11/20 08:12:50;;;;;;;33.43;19.83;;;;;;;;;;5113561;28;20288;-74
2021/11/20 08:15:19;;;;;;;32.93;20.83;;;;;;;;;;5111569;28;20219;-74
2021/11/20 08:17:47;;;;;;;33.27;19.90;;;;;;;;;;5111593;28;20728;-75
2021/11/20 08:20:16;;;;;;;37.00;21.77;;;;;;;;;;5112318;27;20302;-74
2021/11/20 08:22:43;;;;;;;35.03;19.67;;;;;;;;;;5112972;27;20286;-74
2021/11/20 08:25:11;;;;;;;26.33;16.50;;;;;;;;;;5111729;27;20715;-74
2021/11/20 08:27:39;;;;;;;21.97;14.63;;;;;;;;;;5112263;28;20207;-74
2021/11/20 08:30:07;;;;;;;25.50;15.73;;;;;;;;;;5111688;28;20600;-74
2021/11/20 08:32:36;;;;;;;24.43;15.77;;;;;;;;;;5111927;28;20273;-74
2021/11/20 08:35:04;;;;;;;22.03;14.77;;;;;;;;;;5112226;27;20284;-74
2021/11/20 08:37:33;;;;;;;24.80;15.23;;;;;;;;;;5111232;28;20290;-74
2021/11/20 08:40:00;;;;;;;24.17;15.30;;;;;;;;;;5106449;27;20231;-74
2021/11/20 08:42:27;;;;;;;22.67;15.20;;;;;;;;;;5111529;28;20205;-72
2021/11/20 08:44:54;;;;;;;23.93;14.80;;;;;;;;;;5114093;27;20204;-73
2021/11/20 08:47:22;;;;;;;23.07;14.77;;;;;;;;;;5111835;27;20275;-74
2021/11/20 08:49:50;;;;;;;24.30;15.63;;;;;;;;;;5110449;28;20288;-74
2021/11/20 08:52:17;;;;;;;22.43;14.97;;;;;;;;;;5109251;28;20279;-74
2021/11/20 08:54:45;;;;;;;23.00;15.73;;;;;;;;;;5109437;28;20291;-74
2021/11/20 08:57:13;;;;;;;21.77;15.17;;;;;;;;;;5110238;28;20262;-74
2021/11/20 08:59:42;;;;;;;21.07;14.17;;;;;;;;;;5110463;27;20584;-74
2021/11/20 09:02:12;;;;;;;21.10;14.70;;;;;;;;;;5109898;27;20201;-74
2021/11/20 09:04:42;;;;;;;21.53;14.37;;;;;;;;;;5107863;27;20202;-74
2021/11/20 09:07:13;;;;;;;21.27;14.93;;;;;;;;;;5109680;27;20274;-74
2021/11/20 09:09:42;;;;;;;20.37;14.30;;;;;;;;;;5106514;28;20300;-74
2021/11/20 09:12:11;;;;;;;23.97;15.00;;;;;;;;;;5109718;28;20291;-73
2021/11/20 09:14:40;;;;;;;20.83;14.40;;;;;;;;;;5110365;28;20244;-73
2021/11/20 09:17:08;;;;;;;20.77;14.73;;;;;;;;;;5111005;28;20295;-73
2021/11/20 09:19:36;;;;;;;19.83;13.23;;;;;;;;;;5110952;28;20313;-73
2021/11/20 09:22:05;;;;;;;19.53;13.30;;;;;;;;;;5109754;28;20211;-73
2021/11/20 09:24:35;;;;;;;22.37;14.83;;;;;;;;;;5110808;28;20283;-74
2021/11/20 09:27:03;;;;;;;20.33;14.07;;;;;;;;;;5110613;28;20201;-73
2021/11/20 09:29:31;;;;;;;20.47;14.77;;;;;;;;;;5109338;28;20281;-73
2021/11/20 09:31:58;;;;;;;21.10;13.77;;;;;;;;;;5111311;27;20240;-73
2021/11/20 09:34:25;;;;;;;20.87;14.43;;;;;;;;;;5112341;28;20261;-73
2021/11/20 09:36:54;;;;;;;20.87;14.20;;;;;;;;;;5115354;27;20307;-74
2021/11/20 09:39:23;;;;;;;20.43;14.13;;;;;;;;;;5111876;28;20323;-73
2021/11/20 09:41:59;;;;;;;20.00;13.63;;;;;;;;;;5111576;28;20251;-73
2021/11/20 09:44:26;;;;;;;19.07;13.93;;;;;;;;;;5107819;28;20288;-73
2021/11/20 09:46:56;;;;;;;21.47;13.53;;;;;;;;;;5111674;28;20679;-72
2021/11/20 09:49:27;;;;;;;22.23;14.80;;;;;;;;;;5111604;28;20657;-73
2021/11/20 09:51:55;;;;;;;20.07;14.07;;;;;;;;;;5111475;28;20611;-73
2021/11/20 09:54:24;;;;;;;20.20;13.53;;;;;;;;;;5112311;28;20200;-73
2021/11/20 09:56:52;;;;;;;19.70;14.27;;;;;;;;;;5111569;28;20335;-73
2021/11/20 09:59:26;;;;;;;20.87;14.20;;;;;;;;;;5111371;28;20217;-73
2021/11/20 10:01:57;;;;;;;20.63;14.40;;;;;;;;;;5111876;28;20224;-72
2021/11/20 10:04:27;;;;;;;22.13;14.37;;;;;;;;;;5111270;28;20277;-72
2021/11/20 10:06:56;;;;;;;20.40;15.00;;;;;;;;;;5111404;28;20292;-72
2021/11/20 10:09:26;;;;;;;22.47;15.00;;;;;;;;;;5111551;28;20736;-73
2021/11/20 10:11:55;;;;;;;20.53;13.70;;;;;;;;;;5131242;28;20250;-73
2021/11/20 10:14:31;;;;;;;19.67;14.07;;;;;;;;;;5121716;28;20722;-73
2021/11/20 10:16:59;;;;;;;22.83;15.50;;;;;;;;;;5116235;28;20801;-73
2021/11/20 10:19:29;;;;;;;21.47;15.33;;;;;;;;;;5120438;28;20232;-73
2021/11/20 10:22:00;;;;;;;22.10;14.90;;;;;;;;;;5111434;28;20198;-73
2021/11/20 10:24:33;;;;;;;23.77;15.23;;;;;;;;;;5111707;28;20288;-73
2021/11/20 10:27:05;;;;;;;20.10;14.33;;;;;;;;;;5124925;28;20290;-73
2021/11/20 10:29:52;;;;;;;19.33;14.00;;;;;;;;;;5114462;28;20303;-73
2021/11/20 10:32:22;;;;;;;18.10;12.60;;;;;;;;;;5111211;28;20233;-73
2021/11/20 10:34:51;;;;;;;18.67;13.37;;;;;;;;;;5112489;28;20193;-73
2021/11/20 10:37:20;;;;;;;20.03;14.07;;;;;;;;;;5111777;28;20308;-73
2021/11/20 10:39:48;;;;;;;18.23;13.43;;;;;;;;;;5126628;28;20308;-73
2021/11/20 10:42:17;;;;;;;16.13;11.73;;;;;;;;;;5124171;27;21748;-73
2021/11/20 10:44:47;;;;;;;15.20;11.80;;;;;;;;;;5130925;27;20295;-73
2021/11/20 10:47:28;;;;;;;14.93;11.77;;;;;;;;;;5121205;27;20716;-73
2021/11/20 10:50:02;;;;;;;19.67;12.50;;;;;;;;;;5130865;27;20291;-73
2021/11/20 10:52:53;;;;;;;15.87;11.40;;;;;;;;;;5125470;27;20671;-73
2021/11/20 10:55:35;;;;;;;17.87;11.90;;;;;;;;;;5094740;28;20300;-72
2021/11/20 10:58:10;;;;;;;16.57;11.73;;;;;;;;;;5094710;28;20606;-73
2021/11/20 11:01:00;;;;;;;14.70;11.67;;;;;;;;;;5114162;28;20303;-73
2021/11/20 11:03:38;;;;;;;14.27;10.93;;;;;;;;;;5128583;27;20293;-72
2021/11/20 11:06:32;;;;;;;16.30;11.47;;;;;;;;;;5107420;28;20199;-73
2021/11/20 11:09:00;;;;;;;15.90;11.90;;;;;;;;;;5116125;27;20287;-73
2021/11/20 11:11:29;;;;;;;16.43;12.23;;;;;;;;;;5114153;27;20301;-72
2021/11/20 11:14:03;;;;;;;16.03;12.00;;;;;;;;;;5116984;27;20245;-73
2021/11/20 11:16:39;;;;;;;16.23;11.53;;;;;;;;;;5114711;27;20197;-73
2021/11/20 11:19:14;;;;;;;32.30;18.40;;;;;;;;;;5109628;28;20260;-73
2021/11/20 11:21:58;;;;;;;17.67;12.73;;;;;;;;;;5107874;28;20199;-73
2021/11/20 11:24:35;;;;;;;19.77;13.17;;;;;;;;;;5113688;27;20203;-73
2021/11/20 11:27:06;;;;;;;16.23;11.77;;;;;;;;;;5112084;28;20755;-74
2021/11/20 11:30:03;;;;;;;17.23;12.00;;;;;;;;;;5112482;27;20192;-73
2021/11/20 11:32:31;;;;;;;18.30;12.43;;;;;;;;;;5046697;28;20722;-72
2021/11/20 11:35:02;;;;;;;16.67;12.50;;;;;;;;;;5049297;28;20246;-73
2021/11/20 11:37:33;;;;;;;16.63;12.80;;;;;;;;;;5048371;28;20314;-72
2021/11/20 11:40:02;;;;;;;18.63;13.33;;;;;;;;;;5048633;28;20309;-72
2021/11/20 11:42:39;;;;;;;17.53;11.70;;;;;;;;;;5049326;28;20200;-72
2021/11/20 11:45:09;;;;;;;18.20;12.70;;;;;;;;;;5045699;28;20296;-72
2021/11/20 11:47:46;;;;;;;18.67;13.20;;;;;;;;;;5049109;28;20294;-72
2021/11/20 11:50:43;;;;;;;17.70;12.73;;;;;;;;;;5049241;28;20291;-73
2021/11/20 11:53:25;;;;;;;21.67;12.63;;;;;;;;;;5048005;28;20203;-72
2021/11/20 11:55:53;;;;;;;27.80;20.33;;;;;;;;;;5049622;28;20719;-72
2021/11/20 11:58:25;;;;;;;31.67;21.57;;;;;;;;;;5045043;28;20342;-72
2021/11/20 12:00:59;;;;;;;24.20;17.23;;;;;;;;;;5048120;28;20216;-72
2021/11/20 12:03:29;;;;;;;22.50;17.07;;;;;;;;;;5050719;28;20555;-72
2021/11/20 12:06:02;;;;;;;46.27;28.70;;;;;;;;;;5062357;28;20224;-72
2021/11/20 12:08:36;;;;;;;28.20;18.33;;;;;;;;;;5122042;27;20224;-73
2021/11/20 12:11:05;;;;;;;18.50;13.37;;;;;;;;;;5104451;27;20250;-73
2021/11/20 12:13:35;;;;;;;18.53;13.80;;;;;;;;;;5112602;28;20284;-73
2021/11/20 12:16:05;;;;;;;19.60;13.70;;;;;;;;;;5113289;28;20634;-71
2021/11/20 12:18:37;;;;;;;19.60;14.13;;;;;;;;;;5112694;28;20962;-73
2021/11/20 12:21:15;;;;;;;18.93;13.00;;;;;;;;;;5117288;27;20223;-74
2021/11/20 12:23:49;;;;;;;21.37;15.07;;;;;;;;;;5112481;27;20202;-73
2021/11/20 12:26:20;;;;;;;19.37;14.13;;;;;;;;;;5117953;27;20200;-74
2021/11/20 12:29:05;;;;;;;41.50;29.23;;;;;;;;;;5127040;27;20238;-73
2021/11/20 12:31:56;;;;;;;66.07;46.40;;;;;;;;;;5115236;27;20204;-74
2021/11/20 12:34:29;;;;;;;61.30;40.73;;;;;;;;;;5088184;28;20248;-72
2021/11/20 12:37:11;;;;;;;20.40;13.20;;;;;;;;;;5113300;28;20236;-75
2021/11/20 12:39:45;;;;;;;18.43;12.87;;;;;;;;;;5109498;28;20236;-74
2021/11/20 12:42:17;;;;;;;25.33;18.73;;;;;;;;;;5112814;28;20207;-74
2021/11/20 12:44:50;;;;;;;24.07;18.00;;;;;;;;;;5112289;27;20292;-75
2021/11/20 12:47:36;;;;;;;22.23;15.80;;;;;;;;;;5112234;28;20657;-74
2021/11/20 12:50:07;;;;;;;26.07;18.07;;;;;;;;;;5111517;28;20289;-75
2021/11/20 12:52:36;;;;;;;21.33;14.37;;;;;;;;;;5111312;28;20289;-75
2021/11/20 12:55:09;;;;;;;29.27;21.40;;;;;;;;;;5103708;28;20292;-74
2021/11/20 12:57:43;;;;;;;21.20;14.67;;;;;;;;;;5117234;27;20643;-73
2021/11/20 13:00:14;;;;;;;19.57;13.40;;;;;;;;;;5109570;28;20228;-72
2021/11/20 13:02:44;;;;;;;21.93;13.60;;;;;;;;;;5103445;27;20202;-74
2021/11/20 13:05:17;;;;;;;21.00;14.07;;;;;;;;;;5112966;27;20229;-74
2021/11/20 13:07:49;;;;;;;21.03;13.40;;;;;;;;;;5112310;27;20192;-74
2021/11/20 13:10:21;;;;;;;19.23;13.77;;;;;;;;;;5110419;28;20194;-74
2021/11/20 13:12:50;;;;;;;17.23;12.57;;;;;;;;;;5111196;28;20289;-74
2021/11/20 13:15:22;;;;;;;19.30;13.83;;;;;;;;;;5109940;27;20252;-74
2021/11/20 13:17:52;;;;;;;32.60;22.53;;;;;;;;;;5112425;28;20737;-74
2021/11/20 13:20:21;;;;;;;21.33;14.43;;;;;;;;;;5111919;28;20887;-74
2021/11/20 13:22:51;;;;;;;21.17;14.90;;;;;;;;;;5111363;27;20298;-74
2021/11/20 13:25:22;;;;;;;21.27;13.70;;;;;;;;;;5111547;28;20204;-74
2021/11/20 13:28:03;;;;;;;20.93;14.07;;;;;;;;;;5110965;28;20576;-74
2021/11/20 13:30:32;;;;;;;21.93;14.87;;;;;;;;;;5097181;28;20198;-74
2021/11/20 13:33:00;;;;;;;22.43;14.37;;;;;;;;;;5112286;28;20675;-74
2021/11/20 13:35:28;;;;;;;22.40;15.93;;;;;;;;;;5112278;28;20200;-74
2021/11/20 13:37:56;;;;;;;27.00;16.60;;;;;;;;;;5111697;28;20255;-74
2021/11/20 13:40:27;;;;;;;23.87;15.97;;;;;;;;;;5111128;28;20278;-74
2021/11/20 13:42:55;;;;;;;25.13;15.87;;;;;;;;;;5115703;27;20284;-74
2021/11/20 13:45:24;;;;;;;25.17;16.17;;;;;;;;;;5127051;27;20297;-74
2021/11/20 13:47:52;;;;;;;25.27;17.20;;;;;;;;;;5108227;28;20323;-74
2021/11/20 13:50:19;;;;;;;23.57;16.40;;;;;;;;;;5111345;28;20288;-75
2021/11/20 13:52:47;;;;;;;45.33;32.67;;;;;;;;;;5111760;28;20206;-74
2021/11/20 13:55:16;;;;;;;68.73;43.90;;;;;;;;;;5113512;28;20207;-74
2021/11/20 13:57:46;;;;;;;278.27;156.07;;;;;;;;;;5109444;28;20292;-74
2021/11/20 14:00:15;;;;;;;32.27;24.27;;;;;;;;;;5111721;28;20294;-75
2021/11/20 14:02:47;;;;;;;32.80;23.47;;;;;;;;;;5111012;28;20288;-75
2021/11/20 14:05:15;;;;;;;21.33;15.47;;;;;;;;;;5111433;28;20272;-74
2021/11/20 14:07:43;;;;;;;53.27;43.07;;;;;;;;;;5110034;28;20201;-74
2021/11/20 14:10:13;;;;;;;24.83;16.63;;;;;;;;;;5111145;28;20232;-74
2021/11/20 14:12:51;;;;;;;27.02;18.98;;;;;;;;;;5108049;28;20451;-74
2021/11/20 14:15:19;;;;;;;23.50;16.13;;;;;;;;;;5110448;28;20213;-75
2021/11/20 14:17:48;;;;;;;23.47;15.43;;;;;;;;;;5114850;27;20194;-74
2021/11/20 14:20:17;;;;;;;21.83;15.47;;;;;;;;;;5115259;28;20196;-75
2021/11/20 14:22:45;;;;;;;141.90;80.67;;;;;;;;;;5115231;28;20234;-74
2021/11/20 14:25:19;;;;;;;60.47;40.87;;;;;;;;;;5106783;28;20197;-75
2021/11/20 14:27:54;;;;;;;24.07;15.70;;;;;;;;;;5126775;27;20272;-74
2021/11/20 14:30:21;;;;;;;22.70;15.23;;;;;;;;;;5117831;27;20195;-75